Time;durP1;ratioP1;P1;durP2;ratioP2;P2;SDS_P1;SDS_P2;PMS_P1;PMS_P2;Temp;Humidity;BMP_temperature;BMP_pressure;BME280_temperature;BME280_humidity;BME280_pressure;Samples;Min_cycle;Max_cycle;Signal;HPM_P1;HPM_P2
2022/07/19 09:43:13;;;;;;;12.02;2.72;;;44.40;33.50;;;;;;10532685;27;1367730;-44
2022/07/19 09:48:16;;;;;;;7.53;1.90;;;35.60;41.90;;;;;;10470533;28;20096;-43
2022/07/19 09:53:19;;;;;;;3.50;2.03;;;33.90;44.40;;;;;;10141461;28;116534;-43
2022/07/19 09:58:22;;;;;;;5.82;1.98;;;33.50;45.20;;;;;;10388149;28;20486;-48
2022/07/19 10:03:24;;;;;;;7.93;2.10;;;33.50;45.30;;;;;;10389499;28;20051;-41
2022/07/19 10:08:26;;;;;;;11.25;2.85;;;33.30;45.70;;;;;;10393767;28;20455;-45
2022/07/19 10:13:30;;;;;;;6.75;1.95;;;33.50;45.30;;;;;;10394232;28;20061;-46
2022/07/19 10:18:38;;;;;;;7.85;2.35;;;33.70;45.60;;;;;;10368710;28;20046;-43
2022/07/19 10:23:39;;;;;;;4.50;1.88;;;33.70;45.10;;;;;;10434927;28;20354;-42
2022/07/19 10:28:43;;;;;;;8.27;1.90;;;33.80;45.40;;;;;;10433345;28;20124;-44
2022/07/19 10:33:59;;;;;;;9.55;1.70;;;33.80;45.30;;;;;;10434662;28;20144;-44
2022/07/19 10:39:21;;;;;;;7.72;1.92;;;33.90;44.70;;;;;;10438997;28;20134;-41
2022/07/19 10:44:24;;;;;;;17.35;2.92;;;34.00;45.20;;;;;;10437352;28;20113;-46
2022/07/19 10:49:46;;;;;;;7.45;2.08;;;34.00;46.10;;;;;;10411671;28;20141;-46
2022/07/19 10:54:48;;;;;;;9.43;2.50;;;34.00;45.60;;;;;;10294882;28;20148;-42
2022/07/19 10:59:51;;;;;;;8.07;2.08;;;34.20;44.80;;;;;;10344157;28;20478;-46
2022/07/19 11:04:53;;;;;;;7.70;2.03;;;34.30;44.80;;;;;;10256783;28;98957;-46
2022/07/19 11:09:58;;;;;;;9.98;2.08;;;34.30;44.60;;;;;;10405442;28;20102;-43
2022/07/19 11:15:04;;;;;;;6.15;2.10;;;34.40;44.80;;;;;;10394892;28;20045;-45
2022/07/19 11:20:10;;;;;;;5.20;1.65;;;34.50;45.00;;;;;;10396665;28;20136;-44
2022/07/19 11:25:13;;;;;;;7.72;2.03;;;34.50;45.60;;;;;;10403331;28;20037;-42
2022/07/19 11:30:22;;;;;;;3.67;1.88;;;34.50;45.70;;;;;;10396889;28;20053;-45
2022/07/19 11:35:25;;;;;;;6.93;1.60;;;34.60;44.80;;;;;;10380209;28;20583;-42
2022/07/19 11:40:37;;;;;;;8.30;1.55;;;34.60;45.40;;;;;;10378343;28;20403;-42
2022/07/19 11:45:45;;;;;;;3.90;1.63;;;34.60;45.70;;;;;;10405870;28;20096;-44
2022/07/19 11:50:47;;;;;;;5.30;1.40;;;34.70;45.80;;;;;;10408701;28;20065;-44
2022/07/19 11:55:49;;;;;;;5.97;1.77;;;34.70;45.70;;;;;;10403268;28;20128;-44
2022/07/19 12:00:53;;;;;;;12.43;2.20;;;34.70;45.60;;;;;;10407220;28;20057;-43
2022/07/19 12:05:57;;;;;;;3.90;1.52;;;34.70;45.80;;;;;;10401606;28;20129;-41
2022/07/19 12:10:58;;;;;;;5.57;1.92;;;34.80;45.80;;;;;;10408725;28;20048;-42
2022/07/19 12:16:09;;;;;;;5.03;2.05;;;34.90;45.70;;;;;;10407308;28;20128;-43
2022/07/19 12:21:21;;;;;;;6.32;1.70;;;35.00;46.50;;;;;;10407691;28;20045;-41
2022/07/19 12:26:23;;;;;;;7.40;1.60;;;34.90;46.10;;;;;;10398979;28;20061;-42
2022/07/19 12:31:26;;;;;;;4.20;1.60;;;34.90;46.10;;;;;;10406884;28;20132;-42
2022/07/19 12:36:35;;;;;;;16.10;2.42;;;35.00;46.20;;;;;;10407097;28;20067;-41
2022/07/19 12:41:37;;;;;;;23.48;3.75;;;35.10;46.00;;;;;;10401420;28;20053;-46
2022/07/19 12:46:40;;;;;;;13.80;1.95;;;35.20;46.10;;;;;;10406757;28;20044;-44
2022/07/19 12:51:43;;;;;;;7.30;2.17;;;35.30;46.10;;;;;;10404841;28;20038;-40
2022/07/19 12:56:45;;;;;;;6.97;1.70;;;35.40;45.70;;;;;;10404889;28;20053;-45
2022/07/19 13:01:48;;;;;;;6.47;1.63;;;35.50;46.30;;;;;;10404058;28;20614;-41
2022/07/19 13:06:50;;;;;;;6.28;1.52;;;35.60;46.40;;;;;;10402538;28;20134;-42
2022/07/19 13:11:52;;;;;;;4.22;1.50;;;35.50;46.30;;;;;;10399236;28;20049;-40
2022/07/19 13:16:55;;;;;;;7.97;1.23;;;35.50;45.80;;;;;;10402143;28;20045;-43
2022/07/19 13:21:58;;;;;;;5.75;1.67;;;35.60;46.40;;;;;;10406717;28;20136;-47
2022/07/19 13:27:00;;;;;;;5.95;1.80;;;35.50;45.30;;;;;;10406798;28;20042;-42
2022/07/19 13:32:03;;;;;;;2.50;1.60;;;35.60;44.90;;;;;;10405276;28;20136;-41
2022/07/19 13:37:05;;;;;;;10.55;2.05;;;35.80;45.50;;;;;;10407652;28;20045;-41
2022/07/19 13:42:07;;;;;;;3.05;1.40;;;35.80;45.50;;;;;;10402362;28;20050;-41
2022/07/19 13:47:10;;;;;;;5.82;1.80;;;35.80;45.60;;;;;;10397211;28;20119;-42
2022/07/19 13:52:12;;;;;;;6.97;2.38;;;35.80;45.20;;;;;;10406335;28;20080;-40
2022/07/19 13:57:14;;;;;;;6.10;2.00;;;35.80;45.50;;;;;;10406532;28;20136;-40
2022/07/19 14:02:17;;;;;;;1.38;1.05;;;36.00;45.10;;;;;;10402477;28;20048;-41
2022/07/19 14:07:19;;;;;;;5.45;1.80;;;36.10;45.20;;;;;;10402830;28;20158;-42
2022/07/19 14:12:21;;;;;;;10.73;1.83;;;36.10;45.40;;;;;;10397083;28;20132;-42
2022/07/19 14:17:24;;;;;;;5.40;1.80;;;36.10;45.90;;;;;;10405379;28;20073;-41
2022/07/19 14:22:27;;;;;;;2.15;1.63;;;36.40;45.50;;;;;;10395144;28;20136;-39
2022/07/19 14:27:29;;;;;;;2.58;1.30;;;36.60;45.90;;;;;;10407505;28;20051;-39
2022/07/19 14:32:32;;;;;;;4.78;1.73;;;36.90;47.30;;;;;;10380649;28;20058;-39
2022/07/19 14:37:34;;;;;;;2.40;1.05;;;36.70;46.60;;;;;;10404617;28;20137;-44
2022/07/19 14:42:36;;;;;;;5.93;1.75;;;37.00;47.20;;;;;;10407013;28;20127;-38
2022/07/19 14:47:40;;;;;;;14.80;1.60;;;37.10;47.80;;;;;;10407399;28;20051;-39
2022/07/19 14:52:42;;;;;;;7.10;1.67;;;37.10;47.60;;;;;;10412465;28;20041;-39
2022/07/19 14:57:43;;;;;;;3.42;1.45;;;37.10;47.50;;;;;;10409442;28;20542;-41
2022/07/19 15:02:47;;;;;;;6.90;1.50;;;37.10;47.50;;;;;;10406610;28;20049;-39
2022/07/19 15:07:48;;;;;;;1.95;1.38;;;37.10;47.00;;;;;;10406283;28;20116;-39
2022/07/19 15:12:50;;;;;;;4.97;1.48;;;37.10;47.20;;;;;;10408068;28;20120;-39
2022/07/19 15:17:54;;;;;;;4.05;1.30;;;37.10;47.20;;;;;;10410772;28;20061;-40
2022/07/19 15:22:55;;;;;;;12.13;2.30;;;37.20;48.40;;;;;;10401571;28;20143;-39
2022/07/19 15:27:58;;;;;;;7.80;2.40;;;37.30;47.40;;;;;;10404192;28;20128;-40
2022/07/19 15:33:01;;;;;;;2.05;1.48;;;37.40;47.80;;;;;;10405889;28;20143;-40
2022/07/19 15:38:03;;;;;;;4.57;2.10;;;37.30;47.50;;;;;;10406739;28;20080;-40
2022/07/19 15:43:05;;;;;;;6.35;2.00;;;37.20;47.10;;;;;;10406371;28;20053;-39
2022/07/19 15:48:08;;;;;;;10.55;2.55;;;37.40;46.90;;;;;;10410541;28;20065;-40
2022/07/19 15:53:11;;;;;;;6.60;2.60;;;37.30;46.00;;;;;;10395773;28;20068;-40
2022/07/19 15:58:12;;;;;;;3.35;1.95;;;37.60;46.90;;;;;;10397719;28;20469;-42
2022/07/19 16:03:16;;;;;;;7.00;2.30;;;38.00;49.50;;;;;;10404025;28;20059;-42
2022/07/19 16:08:17;;;;;;;10.90;2.25;;;38.40;50.70;;;;;;10413397;28;20091;-37
2022/07/19 16:13:19;;;;;;;9.00;2.47;;;38.20;49.90;;;;;;10388038;28;20044;-40
2022/07/19 16:18:23;;;;;;;4.45;1.50;;;38.20;49.80;;;;;;10394985;28;20034;-40
2022/07/19 16:23:25;;;;;;;5.78;2.58;;;38.30;50.10;;;;;;10400555;28;20165;-40
2022/07/19 16:28:26;;;;;;;8.43;2.10;;;38.20;49.30;;;;;;10399391;28;20124;-39
2022/07/19 16:33:30;;;;;;;4.72;2.03;;;38.20;49.60;;;;;;10406789;28;20136;-41
2022/07/19 16:38:31;;;;;;;11.13;2.55;;;38.10;49.60;;;;;;10387702;28;20127;-41
2022/07/19 16:43:33;;;;;;;4.70;1.98;;;38.40;50.90;;;;;;10400518;28;20148;-41
2022/07/19 16:48:36;;;;;;;4.40;1.60;;;38.40;50.00;;;;;;10388542;28;20055;-41
2022/07/19 16:53:38;;;;;;;11.02;1.98;;;38.60;52.20;;;;;;10398067;28;20045;-41
2022/07/19 16:58:40;;;;;;;6.85;1.85;;;38.70;51.30;;;;;;10402443;28;20046;-40
2022/07/19 17:03:43;;;;;;;7.72;2.00;;;38.90;53.40;;;;;;10397254;28;20143;-40
2022/07/19 17:08:46;;;;;;;10.43;1.90;;;38.90;54.60;;;;;;10396477;28;20167;-40
2022/07/19 17:13:48;;;;;;;3.78;1.70;;;39.10;56.00;;;;;;10395154;28;20072;-39
2022/07/19 17:18:51;;;;;;;4.32;1.95;;;39.30;57.40;;;;;;10398490;28;20049;-39
2022/07/19 17:23:53;;;;;;;2.97;1.80;;;39.30;55.30;;;;;;10394004;28;20385;-40
2022/07/19 17:28:55;;;;;;;5.50;2.10;;;39.10;54.00;;;;;;10390680;28;20116;-39
2022/07/19 17:33:59;;;;;;;6.53;2.10;;;39.00;53.60;;;;;;10396240;28;20045;-39
2022/07/19 17:39:00;;;;;;;7.75;1.77;;;39.10;53.70;;;;;;10396884;28;20485;-41
2022/07/19 17:44:02;;;;;;;20.05;2.88;;;39.10;54.50;;;;;;10404513;28;20072;-40
2022/07/19 17:49:06;;;;;;;8.88;2.50;;;39.20;54.80;;;;;;10382018;28;20104;-42
2022/07/19 17:54:08;;;;;;;6.55;2.25;;;39.20;54.90;;;;;;10400975;28;20044;-42
2022/07/19 17:59:10;;;;;;;15.50;2.33;;;39.20;54.70;;;;;;10395882;28;20050;-41
2022/07/19 18:04:14;;;;;;;5.68;2.25;;;39.20;54.70;;;;;;10392323;28;20393;-43
2022/07/19 18:09:15;;;;;;;3.75;1.50;;;39.20;54.90;;;;;;10401611;28;20556;-41
2022/07/19 18:14:18;;;;;;;3.83;1.80;;;39.10;55.20;;;;;;10397035;28;20135;-39
2022/07/19 18:19:21;;;;;;;6.43;2.42;;;39.10;55.00;;;;;;10394900;28;20045;-37
2022/07/19 18:24:23;;;;;;;7.47;2.05;;;39.10;54.50;;;;;;10397216;28;20041;-44
2022/07/19 18:29:25;;;;;;;5.38;2.20;;;39.10;54.50;;;;;;10394506;28;20076;-43
2022/07/19 18:34:30;;;;;;;4.40;1.73;;;39.10;55.20;;;;;;10394486;28;20061;-40
2022/07/19 18:39:33;;;;;;;4.47;1.80;;;39.10;54.70;;;;;;10397007;28;20096;-40
2022/07/19 18:44:35;;;;;;;7.63;2.08;;;39.00;54.40;;;;;;10407131;28;20075;-45
2022/07/19 18:49:40;;;;;;;17.50;3.25;;;38.90;53.80;;;;;;10396050;28;20120;-42
2022/07/19 18:54:42;;;;;;;5.15;1.92;;;38.80;53.10;;;;;;10395348;28;20041;-43
2022/07/19 18:59:44;;;;;;;8.65;1.55;;;38.80;53.40;;;;;;10389964;28;20936;-45
2022/07/19 19:04:52;;;;;;;6.30;2.10;;;38.70;53.00;;;;;;10393893;28;20140;-42
2022/07/19 19:09:54;;;;;;;8.13;2.30;;;38.70;52.90;;;;;;10405571;28;20521;-46
2022/07/19 19:14:55;;;;;;;5.38;1.83;;;38.60;52.90;;;;;;10390300;28;20048;-42
2022/07/19 19:19:58;;;;;;;7.30;2.25;;;38.60;53.40;;;;;;10400527;28;20036;-46
2022/07/19 19:25:00;;;;;;;12.23;2.25;;;38.60;53.60;;;;;;10404164;28;20053;-40
2022/07/19 19:30:02;;;;;;;3.72;2.10;;;38.60;53.70;;;;;;10401177;28;20037;-41
2022/07/19 19:35:07;;;;;;;4.32;2.25;;;38.60;54.40;;;;;;10397645;28;20069;-40
2022/07/19 19:40:10;;;;;;;7.10;2.20;;;38.60;54.30;;;;;;10395322;28;20662;-39
2022/07/19 19:45:12;;;;;;;9.85;3.08;;;38.60;54.50;;;;;;10396769;28;20051;-43
2022/07/19 19:50:15;;;;;;;5.00;2.30;;;38.60;54.70;;;;;;10396876;28;20089;-40
2022/07/19 19:55:17;;;;;;;11.40;3.60;;;38.50;54.60;;;;;;10395957;28;20466;-43
2022/07/19 20:00:19;;;;;;;7.85;2.75;;;38.50;54.50;;;;;;10395559;28;20067;-42
2022/07/19 20:05:22;;;;;;;6.15;2.33;;;38.50;54.70;;;;;;10401201;28;20050;-41
2022/07/19 20:10:24;;;;;;;7.72;2.45;;;38.50;55.20;;;;;;10395837;28;20056;-41
2022/07/19 20:15:26;;;;;;;9.63;2.60;;;38.50;55.20;;;;;;10380080;28;20470;-40
2022/07/19 20:20:29;;;;;;;5.25;1.70;;;38.50;55.30;;;;;;10399562;28;20077;-40
2022/07/19 20:25:31;;;;;;;6.90;2.08;;;38.50;55.30;;;;;;10405658;28;20045;-42
2022/07/19 20:30:33;;;;;;;4.57;1.60;;;38.50;55.30;;;;;;10402882;28;20045;-44
2022/07/19 20:35:36;;;;;;;9.30;1.98;;;38.40;55.50;;;;;;10384865;28;20045;-43
2022/07/19 20:40:38;;;;;;;1.77;1.30;;;38.50;55.30;;;;;;10378177;28;20077;-41
2022/07/19 20:45:40;;;;;;;1.92;1.30;;;38.40;55.10;;;;;;10379207;28;20043;-40
2022/07/19 20:50:44;;;;;;;2.15;1.35;;;38.30;54.20;;;;;;10406670;28;20047;-42
2022/07/19 20:55:45;;;;;;;2.22;1.17;;;38.20;53.40;;;;;;10402185;28;20449;-42
2022/07/19 21:00:47;;;;;;;1.75;1.38;;;38.10;52.80;;;;;;10388496;28;20079;-44
2022/07/19 21:05:50;;;;;;;1.88;1.45;;;38.00;52.40;;;;;;10398156;28;20045;-44
2022/07/19 21:10:54;;;;;;;3.72;1.38;;;37.90;52.20;;;;;;10395594;28;20126;-42
2022/07/19 21:15:56;;;;;;;3.50;1.58;;;37.80;51.70;;;;;;10405548;28;20069;-39
2022/07/19 21:20:59;;;;;;;1.52;1.42;;;37.70;51.60;;;;;;10404983;28;20041;-40
2022/07/19 21:26:01;;;;;;;2.08;1.27;;;37.70;51.40;;;;;;10395828;28;20681;-44
2022/07/19 21:31:03;;;;;;;2.88;1.55;;;37.60;51.30;;;;;;10393951;28;20061;-40
2022/07/19 21:36:06;;;;;;;3.90;1.50;;;37.50;51.10;;;;;;10400344;28;20141;-40
2022/07/19 21:41:08;;;;;;;3.25;1.50;;;37.50;50.70;;;;;;10399335;28;20049;-40
2022/07/19 21:46:10;;;;;;;1.45;1.25;;;37.40;50.40;;;;;;10376560;28;20383;-46
2022/07/19 21:51:13;;;;;;;2.53;1.30;;;37.30;50.40;;;;;;10400159;28;20145;-46
2022/07/19 21:56:15;;;;;;;1.40;1.30;;;37.30;50.30;;;;;;10400415;28;20046;-40
2022/07/19 22:01:17;;;;;;;4.53;1.70;;;37.20;50.10;;;;;;10402951;28;20224;-43
2022/07/19 22:06:21;;;;;;;3.13;1.42;;;37.20;50.10;;;;;;10397204;28;20074;-44
2022/07/19 22:11:22;;;;;;;1.60;1.48;;;37.10;49.90;;;;;;10395458;28;20124;-40
2022/07/19 22:16:24;;;;;;;2.15;1.40;;;37.10;50.10;;;;;;10404287;28;20140;-42
2022/07/19 22:21:27;;;;;;;1.67;1.35;;;37.00;49.90;;;;;;10399289;28;20136;-46
2022/07/19 22:26:29;;;;;;;1.85;1.52;;;36.90;49.80;;;;;;10407206;28;20514;-41
2022/07/19 22:31:31;;;;;;;2.90;1.60;;;36.90;49.90;;;;;;10406605;28;20128;-40
2022/07/19 22:36:34;;;;;;;1.88;1.25;;;36.80;49.90;;;;;;10399698;28;20041;-39
2022/07/19 22:41:36;;;;;;;2.95;1.40;;;36.80;49.80;;;;;;10393344;28;20049;-46
2022/07/19 22:46:38;;;;;;;1.85;1.30;;;36.70;49.60;;;;;;10396588;28;20041;-40
2022/07/19 22:51:41;;;;;;;3.05;1.40;;;36.60;49.60;;;;;;10421162;28;20509;-45
2022/07/19 22:56:43;;;;;;;2.72;1.40;;;36.60;49.80;;;;;;10401413;28;20389;-44
2022/07/19 23:01:44;;;;;;;1.75;1.48;;;36.50;49.50;;;;;;10410617;28;20042;-42
2022/07/19 23:06:48;;;;;;;6.55;1.83;;;36.50;49.60;;;;;;10401527;28;20061;-47
2022/07/19 23:11:49;;;;;;;2.20;1.38;;;36.50;49.40;;;;;;10388912;28;20477;-44
2022/07/19 23:16:51;;;;;;;2.13;1.30;;;36.40;49.40;;;;;;10407661;28;20077;-46
2022/07/19 23:21:54;;;;;;;2.03;1.23;;;36.40;49.60;;;;;;10406716;28;20045;-43
2022/07/19 23:26:56;;;;;;;5.35;2.55;;;36.30;49.60;;;;;;10406244;28;20041;-40
2022/07/19 23:31:58;;;;;;;2.63;1.50;;;36.30;48.90;;;;;;10403240;28;20125;-44
2022/07/19 23:37:01;;;;;;;2.03;1.27;;;36.20;48.70;;;;;;10404232;28;20096;-40
2022/07/19 23:42:03;;;;;;;4.82;2.65;;;36.20;48.70;;;;;;10398991;28;20103;-46
2022/07/19 23:47:05;;;;;;;1.52;1.27;;;36.10;48.70;;;;;;10412365;28;20124;-43
2022/07/19 23:52:08;;;;;;;2.25;1.30;;;36.00;48.80;;;;;;10407586;28;20140;-41
2022/07/19 23:57:10;;;;;;;1.10;1.00;;;36.00;48.80;;;;;;10408124;28;20590;-44
